sensor_id;sensor_type;location;lat;lon;timestamp;P1;durP1;ratioP1;P2;durP2;ratioP2
1563;SDS011;775;51.958;7.976;2024-01-30T00:00:02;28.10;;;10.50;;
1563;SDS011;775;51.958;7.976;2024-01-30T00:02:50;25.20;;;12.40;;
1563;SDS011;775;51.958;7.976;2024-01-30T00:05:38;26.27;;;11.13;;
1563;SDS011;775;51.958;7.976;2024-01-30T00:08:25;30.37;;;11.67;;
1563;SDS011;775;51.958;7.976;2024-01-30T00:11:13;28.20;;;10.97;;
1563;SDS011;775;51.958;7.976;2024-01-30T00:14:02;25.47;;;10.53;;
1563;SDS011;775;51.958;7.976;2024-01-30T00:16:50;27.40;;;10.17;;
1563;SDS011;775;51.958;7.976;2024-01-30T00:19:37;24.67;;;10.80;;
1563;SDS011;775;51.958;7.976;2024-01-30T00:22:25;23.17;;;10.47;;
1563;SDS011;775;51.958;7.976;2024-01-30T00:25:15;24.67;;;11.60;;
1563;SDS011;775;51.958;7.976;2024-01-30T00:28:03;22.13;;;10.10;;
1563;SDS011;775;51.958;7.976;2024-01-30T00:30:52;23.80;;;10.60;;
1563;SDS011;775;51.958;7.976;2024-01-30T00:33:39;22.47;;;10.63;;
1563;SDS011;775;51.958;7.976;2024-01-30T00:36:27;25.13;;;9.87;;
1563;SDS011;775;51.958;7.976;2024-01-30T00:39:15;27.43;;;10.80;;
1563;SDS011;775;51.958;7.976;2024-01-30T00:42:04;23.20;;;10.77;;
1563;SDS011;775;51.958;7.976;2024-01-30T00:44:52;24.77;;;10.43;;
1563;SDS011;775;51.958;7.976;2024-01-30T00:47:41;24.33;;;9.73;;
1563;SDS011;775;51.958;7.976;2024-01-30T00:50:28;25.20;;;10.57;;
1563;SDS011;775;51.958;7.976;2024-01-30T00:53:15;25.90;;;10.93;;
1563;SDS011;775;51.958;7.976;2024-01-30T00:56:03;25.00;;;10.03;;
1563;SDS011;775;51.958;7.976;2024-01-30T00:58:50;27.20;;;10.60;;
1563;SDS011;775;51.958;7.976;2024-01-30T01:01:38;23.03;;;10.50;;
1563;SDS011;775;51.958;7.976;2024-01-30T01:04:27;22.40;;;10.60;;
1563;SDS011;775;51.958;7.976;2024-01-30T01:07:14;26.00;;;11.33;;
1563;SDS011;775;51.958;7.976;2024-01-30T01:10:01;24.20;;;9.97;;
1563;SDS011;775;51.958;7.976;2024-01-30T01:12:49;23.40;;;10.40;;
1563;SDS011;775;51.958;7.976;2024-01-30T01:15:36;24.50;;;11.10;;
1563;SDS011;775;51.958;7.976;2024-01-30T01:18:24;26.47;;;13.33;;
1563;SDS011;775;51.958;7.976;2024-01-30T01:21:13;25.77;;;10.30;;
1563;SDS011;775;51.958;7.976;2024-01-30T01:24:01;23.33;;;9.93;;
1563;SDS011;775;51.958;7.976;2024-01-30T01:26:49;22.90;;;10.33;;
1563;SDS011;775;51.958;7.976;2024-01-30T01:29:36;22.23;;;9.90;;
1563;SDS011;775;51.958;7.976;2024-01-30T01:32:24;23.20;;;10.47;;
1563;SDS011;775;51.958;7.976;2024-01-30T01:35:11;23.60;;;10.20;;
1563;SDS011;775;51.958;7.976;2024-01-30T01:38:00;25.80;;;10.50;;
1563;SDS011;775;51.958;7.976;2024-01-30T01:40:48;24.90;;;10.20;;
1563;SDS011;775;51.958;7.976;2024-01-30T01:43:36;24.77;;;9.60;;
1563;SDS011;775;51.958;7.976;2024-01-30T01:46:26;26.50;;;11.07;;
1563;SDS011;775;51.958;7.976;2024-01-30T01:49:14;23.30;;;9.17;;
1563;SDS011;775;51.958;7.976;2024-01-30T01:52:01;22.60;;;9.90;;
1563;SDS011;775;51.958;7.976;2024-01-30T01:54:50;22.90;;;9.13;;
1563;SDS011;775;51.958;7.976;2024-01-30T01:57:38;24.13;;;9.67;;
1563;SDS011;775;51.958;7.976;2024-01-30T02:00:25;24.47;;;9.10;;
1563;SDS011;775;51.958;7.976;2024-01-30T02:03:14;22.27;;;9.47;;
1563;SDS011;775;51.958;7.976;2024-01-30T02:06:06;24.23;;;11.37;;
1563;SDS011;775;51.958;7.976;2024-01-30T02:08:56;23.27;;;9.50;;
1563;SDS011;775;51.958;7.976;2024-01-30T02:11:44;22.63;;;9.80;;
1563;SDS011;775;51.958;7.976;2024-01-30T02:14:32;23.73;;;8.90;;
1563;SDS011;775;51.958;7.976;2024-01-30T02:17:19;26.50;;;8.73;;
1563;SDS011;775;51.958;7.976;2024-01-30T02:20:09;23.30;;;9.07;;
1563;SDS011;775;51.958;7.976;2024-01-30T02:22:58;27.07;;;9.63;;
1563;SDS011;775;51.958;7.976;2024-01-30T02:25:47;23.73;;;9.50;;
1563;SDS011;775;51.958;7.976;2024-01-30T02:28:34;23.60;;;8.83;;
1563;SDS011;775;51.958;7.976;2024-01-30T02:31:22;24.43;;;10.17;;
1563;SDS011;775;51.958;7.976;2024-01-30T02:34:09;24.23;;;9.20;;
1563;SDS011;775;51.958;7.976;2024-01-30T02:36:57;23.67;;;9.33;;
1563;SDS011;775;51.958;7.976;2024-01-30T02:39:45;23.20;;;8.37;;
1563;SDS011;775;51.958;7.976;2024-01-30T02:42:33;22.90;;;9.10;;
1563;SDS011;775;51.958;7.976;2024-01-30T02:45:23;26.03;;;8.80;;
1563;SDS011;775;51.958;7.976;2024-01-30T02:48:10;22.80;;;9.53;;
1563;SDS011;775;51.958;7.976;2024-01-30T02:50:57;22.30;;;8.93;;
1563;SDS011;775;51.958;7.976;2024-01-30T02:53:45;24.43;;;9.40;;
1563;SDS011;775;51.958;7.976;2024-01-30T02:56:33;23.27;;;8.93;;
1563;SDS011;775;51.958;7.976;2024-01-30T02:59:21;24.43;;;10.83;;
1563;SDS011;775;51.958;7.976;2024-01-30T03:02:08;22.43;;;9.30;;
1563;SDS011;775;51.958;7.976;2024-01-30T03:04:56;23.10;;;9.10;;
1563;SDS011;775;51.958;7.976;2024-01-30T03:07:43;23.37;;;9.23;;
1563;SDS011;775;51.958;7.976;2024-01-30T03:10:31;22.57;;;9.57;;
1563;SDS011;775;51.958;7.976;2024-01-30T03:13:21;22.90;;;8.67;;
1563;SDS011;775;51.958;7.976;2024-01-30T03:16:10;22.43;;;8.53;;
1563;SDS011;775;51.958;7.976;2024-01-30T03:18:57;21.27;;;8.33;;
1563;SDS011;775;51.958;7.976;2024-01-30T03:21:46;22.13;;;8.83;;
1563;SDS011;775;51.958;7.976;2024-01-30T03:24:33;21.33;;;8.40;;
1563;SDS011;775;51.958;7.976;2024-01-30T03:27:21;23.40;;;8.67;;
1563;SDS011;775;51.958;7.976;2024-01-30T03:30:10;22.60;;;7.83;;
1563;SDS011;775;51.958;7.976;2024-01-30T03:32:57;21.27;;;8.07;;
1563;SDS011;775;51.958;7.976;2024-01-30T03:35:45;22.03;;;8.30;;
1563;SDS011;775;51.958;7.976;2024-01-30T03:38:32;21.53;;;8.00;;
1563;SDS011;775;51.958;7.976;2024-01-30T03:41:19;22.17;;;8.70;;
1563;SDS011;775;51.958;7.976;2024-01-30T03:44:07;27.33;;;8.83;;
1563;SDS011;775;51.958;7.976;2024-01-30T03:46:56;22.10;;;8.40;;
1563;SDS011;775;51.958;7.976;2024-01-30T03:49:45;21.70;;;8.60;;
1563;SDS011;775;51.958;7.976;2024-01-30T03:52:32;20.47;;;7.80;;
1563;SDS011;775;51.958;7.976;2024-01-30T03:55:19;24.33;;;8.77;;
1563;SDS011;775;51.958;7.976;2024-01-30T03:58:07;23.40;;;8.83;;
1563;SDS011;775;51.958;7.976;2024-01-30T04:00:54;21.87;;;8.30;;
1563;SDS011;775;51.958;7.976;2024-01-30T04:03:43;20.63;;;8.20;;
1563;SDS011;775;51.958;7.976;2024-01-30T04:06:30;22.80;;;9.50;;
1563;SDS011;775;51.958;7.976;2024-01-30T04:09:18;22.23;;;8.67;;
1563;SDS011;775;51.958;7.976;2024-01-30T04:12:05;22.80;;;9.07;;
1563;SDS011;775;51.958;7.976;2024-01-30T04:14:53;20.93;;;8.40;;
1563;SDS011;775;51.958;7.976;2024-01-30T04:17:40;25.57;;;8.60;;
1563;SDS011;775;51.958;7.976;2024-01-30T04:20:29;24.90;;;9.40;;
1563;SDS011;775;51.958;7.976;2024-01-30T04:23:17;23.70;;;8.77;;
1563;SDS011;775;51.958;7.976;2024-01-30T04:26:04;24.73;;;9.73;;
1563;SDS011;775;51.958;7.976;2024-01-30T04:28:52;23.07;;;8.50;;
1563;SDS011;775;51.958;7.976;2024-01-30T04:31:39;24.30;;;9.40;;
1563;SDS011;775;51.958;7.976;2024-01-30T04:34:27;27.80;;;9.50;;
1563;SDS011;775;51.958;7.976;2024-01-30T04:37:15;24.37;;;8.20;;
1563;SDS011;775;51.958;7.976;2024-01-30T04:40:03;27.27;;;9.17;;
1563;SDS011;775;51.958;7.976;2024-01-30T04:42:51;22.97;;;8.37;;
1563;SDS011;775;51.958;7.976;2024-01-30T04:45:38;25.00;;;9.57;;
1563;SDS011;775;51.958;7.976;2024-01-30T04:48:25;25.37;;;9.53;;
1563;SDS011;775;51.958;7.976;2024-01-30T04:51:13;27.23;;;8.30;;
1563;SDS011;775;51.958;7.976;2024-01-30T04:54:07;25.30;;;8.80;;
1563;SDS011;775;51.958;7.976;2024-01-30T04:56:55;23.20;;;9.43;;
1563;SDS011;775;51.958;7.976;2024-01-30T04:59:42;24.60;;;8.90;;
1563;SDS011;775;51.958;7.976;2024-01-30T05:02:30;24.47;;;8.57;;
1563;SDS011;775;51.958;7.976;2024-01-30T05:05:17;23.37;;;8.20;;
1563;SDS011;775;51.958;7.976;2024-01-30T05:08:05;24.57;;;9.20;;
1563;SDS011;775;51.958;7.976;2024-01-30T05:10:53;21.80;;;9.00;;
1563;SDS011;775;51.958;7.976;2024-01-30T05:13:41;23.90;;;10.00;;
1563;SDS011;775;51.958;7.976;2024-01-30T05:16:28;22.97;;;8.60;;
1563;SDS011;775;51.958;7.976;2024-01-30T05:19:16;23.70;;;9.60;;
1563;SDS011;775;51.958;7.976;2024-01-30T05:22:04;22.20;;;7.60;;
1563;SDS011;775;51.958;7.976;2024-01-30T05:24:51;21.40;;;8.63;;
1563;SDS011;775;51.958;7.976;2024-01-30T05:27:40;21.90;;;7.97;;
1563;SDS011;775;51.958;7.976;2024-01-30T05:30:27;22.10;;;7.97;;
1563;SDS011;775;51.958;7.976;2024-01-30T05:33:15;20.37;;;7.70;;
1563;SDS011;775;51.958;7.976;2024-01-30T05:36:02;22.20;;;7.77;;
1563;SDS011;775;51.958;7.976;2024-01-30T05:38:50;21.67;;;7.40;;
1563;SDS011;775;51.958;7.976;2024-01-30T05:41:37;22.03;;;8.00;;
1563;SDS011;775;51.958;7.976;2024-01-30T05:44:26;22.17;;;8.00;;
1563;SDS011;775;51.958;7.976;2024-01-30T05:47:13;21.57;;;7.43;;
1563;SDS011;775;51.958;7.976;2024-01-30T05:50:01;22.40;;;8.07;;
1563;SDS011;775;51.958;7.976;2024-01-30T05:52:48;20.57;;;7.73;;
1563;SDS011;775;51.958;7.976;2024-01-30T05:55:36;21.37;;;8.30;;
1563;SDS011;775;51.958;7.976;2024-01-30T05:58:23;21.50;;;8.00;;
1563;SDS011;775;51.958;7.976;2024-01-30T06:01:12;22.70;;;7.73;;
1563;SDS011;775;51.958;7.976;2024-01-30T06:03:59;22.37;;;8.20;;
1563;SDS011;775;51.958;7.976;2024-01-30T06:06:47;21.13;;;8.13;;
1563;SDS011;775;51.958;7.976;2024-01-30T06:09:34;20.93;;;8.00;;
1563;SDS011;775;51.958;7.976;2024-01-30T06:12:21;21.33;;;7.70;;
1563;SDS011;775;51.958;7.976;2024-01-30T06:15:09;20.70;;;7.30;;
1563;SDS011;775;51.958;7.976;2024-01-30T06:17:59;21.20;;;8.20;;
1563;SDS011;775;51.958;7.976;2024-01-30T06:20:46;21.63;;;7.87;;
1563;SDS011;775;51.958;7.976;2024-01-30T06:23:34;23.40;;;9.43;;
1563;SDS011;775;51.958;7.976;2024-01-30T06:26:21;22.93;;;8.63;;
1563;SDS011;775;51.958;7.976;2024-01-30T06:29:09;24.03;;;7.80;;
1563;SDS011;775;51.958;7.976;2024-01-30T06:31:56;21.80;;;8.70;;
1563;SDS011;775;51.958;7.976;2024-01-30T06:34:45;24.57;;;9.73;;
1563;SDS011;775;51.958;7.976;2024-01-30T06:37:34;22.30;;;9.57;;
1563;SDS011;775;51.958;7.976;2024-01-30T06:40:22;24.03;;;9.17;;
1563;SDS011;775;51.958;7.976;2024-01-30T06:43:09;21.57;;;8.63;;
1563;SDS011;775;51.958;7.976;2024-01-30T06:45:57;23.47;;;9.73;;
1563;SDS011;775;51.958;7.976;2024-01-30T06:48:44;21.37;;;8.20;;
1563;SDS011;775;51.958;7.976;2024-01-30T06:51:33;21.43;;;8.20;;
1563;SDS011;775;51.958;7.976;2024-01-30T06:54:20;21.23;;;8.77;;
1563;SDS011;775;51.958;7.976;2024-01-30T06:57:08;20.83;;;7.70;;
1563;SDS011;775;51.958;7.976;2024-01-30T06:59:57;21.27;;;7.80;;
1563;SDS011;775;51.958;7.976;2024-01-30T07:02:44;22.80;;;9.00;;
1563;SDS011;775;51.958;7.976;2024-01-30T07:05:32;21.90;;;7.77;;
1563;SDS011;775;51.958;7.976;2024-01-30T07:08:20;22.60;;;8.10;;
1563;SDS011;775;51.958;7.976;2024-01-30T07:11:08;21.60;;;8.10;;
1563;SDS011;775;51.958;7.976;2024-01-30T07:13:57;25.93;;;8.13;;
1563;SDS011;775;51.958;7.976;2024-01-30T07:16:45;22.10;;;8.43;;
1563;SDS011;775;51.958;7.976;2024-01-30T07:19:32;22.53;;;8.00;;
1563;SDS011;775;51.958;7.976;2024-01-30T07:22:20;21.40;;;8.07;;
1563;SDS011;775;51.958;7.976;2024-01-30T07:25:09;23.50;;;7.43;;
1563;SDS011;775;51.958;7.976;2024-01-30T07:27:56;24.07;;;8.67;;
1563;SDS011;775;51.958;7.976;2024-01-30T07:30:43;21.23;;;7.73;;
1563;SDS011;775;51.958;7.976;2024-01-30T07:33:31;22.20;;;8.43;;
1563;SDS011;775;51.958;7.976;2024-01-30T07:36:18;21.17;;;7.37;;
1563;SDS011;775;51.958;7.976;2024-01-30T07:39:06;23.90;;;8.27;;
1563;SDS011;775;51.958;7.976;2024-01-30T07:41:54;22.13;;;9.20;;
1563;SDS011;775;51.958;7.976;2024-01-30T07:44:42;21.83;;;9.00;;
1563;SDS011;775;51.958;7.976;2024-01-30T07:47:29;22.60;;;8.70;;
1563;SDS011;775;51.958;7.976;2024-01-30T07:50:17;23.83;;;8.77;;
1563;SDS011;775;51.958;7.976;2024-01-30T07:53:04;26.30;;;9.70;;
1563;SDS011;775;51.958;7.976;2024-01-30T07:55:52;23.40;;;9.43;;
1563;SDS011;775;51.958;7.976;2024-01-30T07:58:40;23.93;;;8.53;;
1563;SDS011;775;51.958;7.976;2024-01-30T08:01:28;21.40;;;8.80;;
1563;SDS011;775;51.958;7.976;2024-01-30T08:04:15;23.07;;;8.90;;
1563;SDS011;775;51.958;7.976;2024-01-30T08:07:03;26.00;;;8.93;;
1563;SDS011;775;51.958;7.976;2024-01-30T08:09:51;25.20;;;9.27;;
1563;SDS011;775;51.958;7.976;2024-01-30T08:12:38;21.27;;;8.00;;
1563;SDS011;775;51.958;7.976;2024-01-30T08:15:27;23.00;;;8.80;;
1563;SDS011;775;51.958;7.976;2024-01-30T08:18:14;25.00;;;8.77;;
1563;SDS011;775;51.958;7.976;2024-01-30T08:21:02;26.40;;;8.90;;
1563;SDS011;775;51.958;7.976;2024-01-30T08:23:49;22.43;;;9.30;;
1563;SDS011;775;51.958;7.976;2024-01-30T08:26:37;22.63;;;8.67;;
1563;SDS011;775;51.958;7.976;2024-01-30T08:29:24;24.33;;;9.10;;
1563;SDS011;775;51.958;7.976;2024-01-30T08:32:13;25.07;;;9.37;;
1563;SDS011;775;51.958;7.976;2024-01-30T08:35:00;21.87;;;9.20;;
1563;SDS011;775;51.958;7.976;2024-01-30T08:37:49;21.83;;;8.40;;
1563;SDS011;775;51.958;7.976;2024-01-30T08:40:38;23.90;;;9.20;;
1563;SDS011;775;51.958;7.976;2024-01-30T08:43:25;25.60;;;9.10;;
1563;SDS011;775;51.958;7.976;2024-01-30T08:46:13;22.73;;;10.40;;
1563;SDS011;775;51.958;7.976;2024-01-30T08:49:01;24.63;;;9.20;;
1563;SDS011;775;51.958;7.976;2024-01-30T08:51:49;20.90;;;7.50;;
1563;SDS011;775;51.958;7.976;2024-01-30T08:54:37;23.60;;;8.70;;
1563;SDS011;775;51.958;7.976;2024-01-30T08:57:24;22.93;;;8.60;;
1563;SDS011;775;51.958;7.976;2024-01-30T09:00:14;21.00;;;7.30;;
1563;SDS011;775;51.958;7.976;2024-01-30T09:03:01;22.57;;;8.13;;
1563;SDS011;775;51.958;7.976;2024-01-30T09:05:50;22.50;;;9.13;;
1563;SDS011;775;51.958;7.976;2024-01-30T09:08:38;23.83;;;8.27;;
1563;SDS011;775;51.958;7.976;2024-01-30T09:11:25;24.73;;;7.80;;
1563;SDS011;775;51.958;7.976;2024-01-30T09:14:12;23.40;;;9.90;;
1563;SDS011;775;51.958;7.976;2024-01-30T09:17:00;23.13;;;9.07;;
1563;SDS011;775;51.958;7.976;2024-01-30T09:19:50;25.20;;;10.53;;
1563;SDS011;775;51.958;7.976;2024-01-30T09:22:39;26.20;;;9.50;;
1563;SDS011;775;51.958;7.976;2024-01-30T09:25:26;25.50;;;10.30;;
1563;SDS011;775;51.958;7.976;2024-01-30T09:28:13;29.17;;;11.30;;
1563;SDS011;775;51.958;7.976;2024-01-30T09:31:01;24.10;;;10.07;;
1563;SDS011;775;51.958;7.976;2024-01-30T09:33:48;26.43;;;11.20;;
1563;SDS011;775;51.958;7.976;2024-01-30T09:36:36;26.53;;;11.23;;
1563;SDS011;775;51.958;7.976;2024-01-30T09:39:25;26.10;;;12.23;;
1563;SDS011;775;51.958;7.976;2024-01-30T09:42:15;26.97;;;11.40;;
1563;SDS011;775;51.958;7.976;2024-01-30T09:45:05;24.83;;;9.83;;
1563;SDS011;775;51.958;7.976;2024-01-30T09:47:53;22.90;;;9.90;;
1563;SDS011;775;51.958;7.976;2024-01-30T09:50:40;26.40;;;9.80;;
1563;SDS011;775;51.958;7.976;2024-01-30T09:53:28;23.07;;;9.00;;
1563;SDS011;775;51.958;7.976;2024-01-30T09:56:16;24.23;;;9.30;;
1563;SDS011;775;51.958;7.976;2024-01-30T09:59:04;22.20;;;9.07;;
1563;SDS011;775;51.958;7.976;2024-01-30T10:01:52;24.37;;;9.07;;
1563;SDS011;775;51.958;7.976;2024-01-30T10:04:39;23.33;;;9.20;;
1563;SDS011;775;51.958;7.976;2024-01-30T10:07:26;32.53;;;9.27;;
1563;SDS011;775;51.958;7.976;2024-01-30T10:10:15;23.10;;;8.10;;
1563;SDS011;775;51.958;7.976;2024-01-30T10:13:08;25.00;;;8.27;;
1563;SDS011;775;51.958;7.976;2024-01-30T10:15:55;22.37;;;8.20;;
1563;SDS011;775;51.958;7.976;2024-01-30T10:18:43;20.17;;;7.03;;
1563;SDS011;775;51.958;7.976;2024-01-30T10:21:31;23.33;;;8.00;;
1563;SDS011;775;51.958;7.976;2024-01-30T10:24:18;20.10;;;8.10;;
1563;SDS011;775;51.958;7.976;2024-01-30T10:27:05;21.80;;;7.47;;
1563;SDS011;775;51.958;7.976;2024-01-30T10:29:54;22.30;;;7.07;;
1563;SDS011;775;51.958;7.976;2024-01-30T10:32:42;21.50;;;7.67;;
1563;SDS011;775;51.958;7.976;2024-01-30T10:35:29;19.80;;;6.90;;
1563;SDS011;775;51.958;7.976;2024-01-30T10:38:18;21.80;;;7.60;;
1563;SDS011;775;51.958;7.976;2024-01-30T10:41:06;23.20;;;8.63;;
1563;SDS011;775;51.958;7.976;2024-01-30T10:43:57;23.43;;;7.60;;
1563;SDS011;775;51.958;7.976;2024-01-30T10:46:47;22.77;;;8.10;;
1563;SDS011;775;51.958;7.976;2024-01-30T10:49:38;21.97;;;8.47;;
1563;SDS011;775;51.958;7.976;2024-01-30T10:52:26;23.30;;;7.53;;
1563;SDS011;775;51.958;7.976;2024-01-30T10:55:14;22.00;;;6.60;;
1563;SDS011;775;51.958;7.976;2024-01-30T10:58:03;20.10;;;7.33;;
1563;SDS011;775;51.958;7.976;2024-01-30T11:00:50;19.93;;;6.70;;
1563;SDS011;775;51.958;7.976;2024-01-30T11:03:39;22.63;;;6.80;;
1563;SDS011;775;51.958;7.976;2024-01-30T11:06:27;22.50;;;7.50;;
1563;SDS011;775;51.958;7.976;2024-01-30T11:09:16;23.03;;;7.43;;
1563;SDS011;775;51.958;7.976;2024-01-30T11:12:04;23.63;;;8.47;;
1563;SDS011;775;51.958;7.976;2024-01-30T11:15:01;21.17;;;8.00;;
1563;SDS011;775;51.958;7.976;2024-01-30T11:17:50;24.33;;;7.87;;
1563;SDS011;775;51.958;7.976;2024-01-30T11:20:39;23.47;;;7.90;;
1563;SDS011;775;51.958;7.976;2024-01-30T11:23:34;22.17;;;8.37;;
1563;SDS011;775;51.958;7.976;2024-01-30T11:26:23;20.90;;;6.23;;
1563;SDS011;775;51.958;7.976;2024-01-30T11:29:13;23.60;;;7.20;;
1563;SDS011;775;51.958;7.976;2024-01-30T11:32:00;21.97;;;6.63;;
1563;SDS011;775;51.958;7.976;2024-01-30T11:34:48;25.60;;;7.63;;
1563;SDS011;775;51.958;7.976;2024-01-30T11:37:37;21.97;;;7.70;;
1563;SDS011;775;51.958;7.976;2024-01-30T11:40:25;22.40;;;7.90;;
1563;SDS011;775;51.958;7.976;2024-01-30T11:43:13;22.73;;;8.20;;
1563;SDS011;775;51.958;7.976;2024-01-30T11:46:00;22.00;;;8.40;;
1563;SDS011;775;51.958;7.976;2024-01-30T11:48:48;21.73;;;7.10;;
1563;SDS011;775;51.958;7.976;2024-01-30T11:51:36;21.70;;;7.20;;
1563;SDS011;775;51.958;7.976;2024-01-30T11:54:25;25.47;;;7.70;;
1563;SDS011;775;51.958;7.976;2024-01-30T11:57:12;22.13;;;7.87;;
1563;SDS011;775;51.958;7.976;2024-01-30T12:00:00;21.87;;;7.50;;
1563;SDS011;775;51.958;7.976;2024-01-30T12:02:49;21.23;;;7.40;;
1563;SDS011;775;51.958;7.976;2024-01-30T12:05:36;22.97;;;7.87;;
1563;SDS011;775;51.958;7.976;2024-01-30T12:08:28;22.53;;;7.63;;
1563;SDS011;775;51.958;7.976;2024-01-30T12:11:17;20.50;;;7.63;;
1563;SDS011;775;51.958;7.976;2024-01-30T12:14:04;21.20;;;7.50;;
1563;SDS011;775;51.958;7.976;2024-01-30T12:16:51;21.00;;;6.87;;
1563;SDS011;775;51.958;7.976;2024-01-30T12:19:39;22.60;;;7.90;;
1563;SDS011;775;51.958;7.976;2024-01-30T12:22:26;21.80;;;7.30;;
1563;SDS011;775;51.958;7.976;2024-01-30T12:25:14;19.47;;;7.00;;
1563;SDS011;775;51.958;7.976;2024-01-30T12:28:03;23.77;;;7.77;;
1563;SDS011;775;51.958;7.976;2024-01-30T12:30:54;22.77;;;7.37;;
1563;SDS011;775;51.958;7.976;2024-01-30T12:33:41;21.87;;;7.43;;
1563;SDS011;775;51.958;7.976;2024-01-30T12:36:29;22.27;;;8.47;;
1563;SDS011;775;51.958;7.976;2024-01-30T12:39:16;23.50;;;7.23;;
1563;SDS011;775;51.958;7.976;2024-01-30T12:42:04;23.57;;;7.20;;
1563;SDS011;775;51.958;7.976;2024-01-30T12:44:53;22.03;;;6.93;;
1563;SDS011;775;51.958;7.976;2024-01-30T12:47:40;21.40;;;7.10;;
1563;SDS011;775;51.958;7.976;2024-01-30T12:50:28;21.03;;;7.03;;
1563;SDS011;775;51.958;7.976;2024-01-30T12:53:15;21.83;;;7.53;;
1563;SDS011;775;51.958;7.976;2024-01-30T12:56:03;22.07;;;6.80;;
1563;SDS011;775;51.958;7.976;2024-01-30T12:58:50;20.50;;;7.23;;
1563;SDS011;775;51.958;7.976;2024-01-30T13:01:39;22.20;;;7.03;;
1563;SDS011;775;51.958;7.976;2024-01-30T13:04:27;25.43;;;7.20;;
1563;SDS011;775;51.958;7.976;2024-01-30T13:07:14;26.83;;;7.80;;
1563;SDS011;775;51.958;7.976;2024-01-30T13:10:02;24.30;;;7.37;;
1563;SDS011;775;51.958;7.976;2024-01-30T13:12:49;25.70;;;8.93;;
1563;SDS011;775;51.958;7.976;2024-01-30T13:15:37;21.20;;;8.50;;
1563;SDS011;775;51.958;7.976;2024-01-30T13:18:26;23.20;;;8.90;;
1563;SDS011;775;51.958;7.976;2024-01-30T13:21:14;24.37;;;7.70;;
1563;SDS011;775;51.958;7.976;2024-01-30T13:24:02;21.30;;;6.73;;
1563;SDS011;775;51.958;7.976;2024-01-30T13:26:50;21.20;;;7.40;;
1563;SDS011;775;51.958;7.976;2024-01-30T13:29:37;20.03;;;7.40;;
1563;SDS011;775;51.958;7.976;2024-01-30T13:32:25;23.67;;;7.03;;
1563;SDS011;775;51.958;7.976;2024-01-30T13:35:14;22.43;;;8.30;;
1563;SDS011;775;51.958;7.976;2024-01-30T13:38:01;21.30;;;7.47;;
1563;SDS011;775;51.958;7.976;2024-01-30T13:40:49;22.87;;;7.10;;
1563;SDS011;775;51.958;7.976;2024-01-30T13:43:36;22.57;;;7.50;;
1563;SDS011;775;51.958;7.976;2024-01-30T13:46:24;21.47;;;8.23;;
1563;SDS011;775;51.958;7.976;2024-01-30T13:49:11;26.93;;;7.67;;
1563;SDS011;775;51.958;7.976;2024-01-30T13:52:00;20.90;;;7.90;;
1563;SDS011;775;51.958;7.976;2024-01-30T13:54:49;22.43;;;7.40;;
1563;SDS011;775;51.958;7.976;2024-01-30T13:57:36;23.23;;;8.43;;
1563;SDS011;775;51.958;7.976;2024-01-30T14:00:24;27.20;;;8.10;;
1563;SDS011;775;51.958;7.976;2024-01-30T14:03:11;28.00;;;8.23;;
1563;SDS011;775;51.958;7.976;2024-01-30T14:05:59;21.77;;;7.83;;
1563;SDS011;775;51.958;7.976;2024-01-30T14:08:49;22.10;;;8.17;;
1563;SDS011;775;51.958;7.976;2024-01-30T14:11:39;23.47;;;8.33;;
1563;SDS011;775;51.958;7.976;2024-01-30T14:14:27;25.83;;;8.37;;
1563;SDS011;775;51.958;7.976;2024-01-30T14:17:14;21.83;;;8.00;;
1563;SDS011;775;51.958;7.976;2024-01-30T14:20:02;23.07;;;7.30;;
1563;SDS011;775;51.958;7.976;2024-01-30T14:22:50;25.03;;;8.03;;
1563;SDS011;775;51.958;7.976;2024-01-30T14:25:40;21.33;;;7.80;;
1563;SDS011;775;51.958;7.976;2024-01-30T14:28:27;19.97;;;7.33;;
1563;SDS011;775;51.958;7.976;2024-01-30T14:31:14;22.93;;;8.10;;
1563;SDS011;775;51.958;7.976;2024-01-30T14:34:04;23.20;;;7.63;;
1563;SDS011;775;51.958;7.976;2024-01-30T14:36:51;21.63;;;7.50;;
1563;SDS011;775;51.958;7.976;2024-01-30T14:39:38;24.20;;;8.90;;
1563;SDS011;775;51.958;7.976;2024-01-30T14:42:27;20.40;;;7.30;;
1563;SDS011;775;51.958;7.976;2024-01-30T14:45:16;22.10;;;8.07;;
1563;SDS011;775;51.958;7.976;2024-01-30T14:48:04;22.07;;;7.73;;
1563;SDS011;775;51.958;7.976;2024-01-30T14:50:52;22.67;;;8.30;;
1563;SDS011;775;51.958;7.976;2024-01-30T14:53:39;23.97;;;8.63;;
1563;SDS011;775;51.958;7.976;2024-01-30T14:56:27;28.73;;;8.27;;
1563;SDS011;775;51.958;7.976;2024-01-30T14:59:15;23.73;;;8.77;;
1563;SDS011;775;51.958;7.976;2024-01-30T15:02:03;27.33;;;8.00;;
1563;SDS011;775;51.958;7.976;2024-01-30T15:04:50;22.90;;;9.63;;
1563;SDS011;775;51.958;7.976;2024-01-30T15:07:38;23.47;;;8.90;;
1563;SDS011;775;51.958;7.976;2024-01-30T15:10:25;23.27;;;8.30;;
1563;SDS011;775;51.958;7.976;2024-01-30T15:13:13;23.90;;;8.47;;
1563;SDS011;775;51.958;7.976;2024-01-30T15:16:02;27.63;;;10.80;;
1563;SDS011;775;51.958;7.976;2024-01-30T15:18:51;28.43;;;9.83;;
1563;SDS011;775;51.958;7.976;2024-01-30T15:21:38;23.93;;;8.53;;
1563;SDS011;775;51.958;7.976;2024-01-30T15:24:25;26.80;;;9.33;;
1563;SDS011;775;51.958;7.976;2024-01-30T15:27:13;21.90;;;9.10;;
1563;SDS011;775;51.958;7.976;2024-01-30T15:30:01;22.07;;;8.53;;
1563;SDS011;775;51.958;7.976;2024-01-30T15:32:49;21.27;;;8.40;;
1563;SDS011;775;51.958;7.976;2024-01-30T15:35:37;25.30;;;7.90;;
1563;SDS011;775;51.958;7.976;2024-01-30T15:38:25;26.70;;;9.00;;
1563;SDS011;775;51.958;7.976;2024-01-30T15:41:14;21.30;;;8.07;;
1563;SDS011;775;51.958;7.976;2024-01-30T15:44:01;22.83;;;8.57;;
1563;SDS011;775;51.958;7.976;2024-01-30T15:46:49;22.97;;;8.00;;
1563;SDS011;775;51.958;7.976;2024-01-30T15:49:39;22.07;;;7.90;;
1563;SDS011;775;51.958;7.976;2024-01-30T15:52:26;21.40;;;8.23;;
1563;SDS011;775;51.958;7.976;2024-01-30T15:55:14;22.43;;;7.70;;
1563;SDS011;775;51.958;7.976;2024-01-30T15:58:01;20.00;;;7.60;;
1563;SDS011;775;51.958;7.976;2024-01-30T16:00:49;21.83;;;8.70;;
1563;SDS011;775;51.958;7.976;2024-01-30T16:03:36;22.50;;;8.63;;
1563;SDS011;775;51.958;7.976;2024-01-30T16:06:26;26.13;;;9.03;;
1563;SDS011;775;51.958;7.976;2024-01-30T16:09:14;23.70;;;9.20;;
1563;SDS011;775;51.958;7.976;2024-01-30T16:12:01;22.80;;;8.67;;
1563;SDS011;775;51.958;7.976;2024-01-30T16:14:49;22.77;;;8.10;;
1563;SDS011;775;51.958;7.976;2024-01-30T16:17:36;25.40;;;8.10;;
1563;SDS011;775;51.958;7.976;2024-01-30T16:20:24;23.50;;;7.43;;
1563;SDS011;775;51.958;7.976;2024-01-30T16:23:12;23.70;;;7.00;;
1563;SDS011;775;51.958;7.976;2024-01-30T16:26:00;19.40;;;6.33;;
1563;SDS011;775;51.958;7.976;2024-01-30T16:28:47;22.37;;;6.47;;
1563;SDS011;775;51.958;7.976;2024-01-30T16:31:35;19.60;;;5.83;;
1563;SDS011;775;51.958;7.976;2024-01-30T16:34:22;20.13;;;5.53;;
1563;SDS011;775;51.958;7.976;2024-01-30T16:37:10;19.97;;;5.63;;
1563;SDS011;775;51.958;7.976;2024-01-30T16:39:58;21.70;;;5.07;;
1563;SDS011;775;51.958;7.976;2024-01-30T16:42:46;22.77;;;5.10;;
1563;SDS011;775;51.958;7.976;2024-01-30T16:45:33;23.40;;;5.00;;
1563;SDS011;775;51.958;7.976;2024-01-30T16:48:20;19.57;;;4.53;;
1563;SDS011;775;51.958;7.976;2024-01-30T16:51:08;16.87;;;3.70;;
1563;SDS011;775;51.958;7.976;2024-01-30T16:53:55;17.67;;;4.50;;
1563;SDS011;775;51.958;7.976;2024-01-30T16:56:46;17.20;;;3.57;;
1563;SDS011;775;51.958;7.976;2024-01-30T16:59:34;19.13;;;3.57;;
1563;SDS011;775;51.958;7.976;2024-01-30T17:02:21;18.00;;;4.20;;
1563;SDS011;775;51.958;7.976;2024-01-30T17:05:08;18.30;;;3.60;;
1563;SDS011;775;51.958;7.976;2024-01-30T17:07:56;16.20;;;3.30;;
1563;SDS011;775;51.958;7.976;2024-01-30T17:10:44;16.53;;;3.40;;
1563;SDS011;775;51.958;7.976;2024-01-30T17:13:33;16.43;;;3.03;;
1563;SDS011;775;51.958;7.976;2024-01-30T17:16:20;16.10;;;2.87;;
1563;SDS011;775;51.958;7.976;2024-01-30T17:19:07;17.47;;;2.93;;